| time (UTC) | temp F | wind direction | speed MPH | gust MPH | rain 1hr in | rain 24hr in | rain mn in | humidity % | barometer mb |
| 20260504194550 | 79 | 238 | 1.0 | 9.0 | 0.00 | 0.00 | 0.00 | 36 | 1014.0 |
| 20260504193058 | 78 | 276 | 3.0 | 8.0 | 0.00 | 0.00 | 0.00 | 35 | 1014.2 |
| 20260504191608 | 79 | 39 | 2.0 | 8.0 | 0.00 | 0.00 | 0.00 | 36 | 1014.4 |
| 20260504190055 | 78 | 32 | 1.0 | 7.0 | 0.00 | 0.00 | 0.00 | 35 | 1014.7 |
| 20260504184552 | 78 | 221 | 3.0 | 7.0 | 0.00 | 0.00 | 0.00 | 35 | 1014.8 |
| 20260504183055 | 78 | 211 | 1.0 | 8.0 | 0.00 | 0.00 | 0.00 | 35 | 1015.1 |
| 20260504181553 | 78 | 269 | 1.0 | 6.0 | 0.00 | 0.00 | 0.00 | 35 | 1015.2 |
| 20260504180051 | 77 | 290 | 1.0 | 8.0 | 0.00 | 0.00 | 0.00 | 34 | 1015.5 |
| 20260504174555 | 76 | 51 | 2.0 | 8.0 | 0.00 | 0.00 | 0.00 | 36 | 1015.5 |
| 20260504173051 | 76 | 213 | 1.0 | 6.0 | 0.00 | 0.00 | 0.00 | 36 | 1015.6 |
| 20260504171553 | 76 | 96 | 2.0 | 10.0 | 0.00 | 0.00 | 0.00 | 36 | 1015.7 |
| 20260504081549 | 39 | 0 | 0.0 | 0.0 | 0.00 | 0.00 | 0.00 | 92 | 1016.6 |
| 20260504044552 | 45 | 0 | 0.0 | 0.0 | 0.00 | 0.00 | 0.00 | 84 | 1017.0 |
| 20260504043108 | 45 | 0 | 0.0 | 0.0 | 0.00 | 0.00 | 0.00 | 82 | 1017.1 |
| 20260504041550 | 45 | 0 | 0.0 | 0.0 | 0.00 | 0.00 | 0.00 | 82 | 1016.7 |
| 20260504040052 | 46 | 0 | 0.0 | 0.0 | 0.00 | 0.00 | 0.00 | 82 | 1016.5 |
| 20260504034551 | 46 | 0 | 0.0 | 0.0 | 0.00 | 0.00 | 0.00 | 79 | 1016.6 |
| 20260504033059 | 47 | 0 | 0.0 | 0.0 | 0.00 | 0.00 | 0.00 | 77 | 1016.7 |
| 20260504031554 | 48 | 0 | 0.0 | 0.0 | 0.00 | 0.00 | 0.00 | 78 | 1017.0 |
| 20260504024547 | 49 | 0 | 0.0 | 0.0 | 0.00 | 0.00 | 0.00 | 75 | 1016.8 |
| 20260504023047 | 49 | 0 | 0.0 | 0.0 | 0.00 | 0.00 | 0.00 | 73 | 1017.0 |
| 20260504021551 | 50 | 0 | 0.0 | 0.0 | 0.00 | 0.00 | 0.00 | 68 | 1016.7 |
| 20260504020053 | 51 | 0 | 0.0 | 0.0 | 0.00 | 0.00 | 0.00 | 66 | 1016.5 |
| 20260504014550 | 52 | 0 | 0.0 | 0.0 | 0.00 | 0.00 | 0.00 | 67 | 1016.2 |
| 20260504013113 | 53 | 0 | 0.0 | 0.0 | 0.00 | 0.00 | 0.00 | 66 | 1015.9 |
| 20260504011546 | 54 | 0 | 0.0 | 0.0 | 0.00 | 0.00 | 0.00 | 58 | 1015.9 |
| 20260504010054 | 55 | 0 | 0.0 | 0.0 | 0.00 | 0.00 | 0.00 | 56 | 1015.6 |
| 20260504004549 | 57 | 0 | 0.0 | 0.0 | 0.00 | 0.00 | 0.00 | 52 | 1015.5 |
| 20260504003049 | 60 | 0 | 0.0 | 0.0 | 0.00 | 0.00 | 0.00 | 47 | 1015.5 |
| 20260504001556 | 62 | 0 | 0.0 | 0.0 | 0.00 | 0.00 | 0.00 | 40 | 1015.2 |
| 20260504000058 | 66 | 0 | 0.0 | 1.0 | 0.00 | 0.00 | 0.00 | 36 | 1015.2 |
| 20260503234550 | 71 | 161 | 0.0 | 6.0 | 0.00 | 0.00 | 0.00 | 31 | 1015.1 |
| 20260503233042 | 71 | 0 | 0.0 | 0.0 | 0.00 | 0.00 | 0.00 | 33 | 1015.0 |
| 20260503231553 | 71 | 0 | 0.0 | 2.0 | 0.00 | 0.00 | 0.00 | 31 | 1015.0 |
| 20260503230104 | 71 | 219 | 0.0 | 6.0 | 0.00 | 0.00 | 0.00 | 32 | 1015.0 |
| 20260503224546 | 71 | 241 | 1.0 | 4.0 | 0.00 | 0.00 | 0.00 | 32 | 1015.1 |
| 20260503223107 | 71 | 274 | 0.0 | 5.0 | 0.00 | 0.00 | 0.00 | 31 | 1015.0 |
| 20260503221550 | 71 | 233 | 2.0 | 6.0 | 0.00 | 0.00 | 0.00 | 29 | 1015.1 |
| 20260503220054 | 71 | 0 | 0.0 | 8.0 | 0.00 | 0.00 | 0.00 | 30 | 1015.2 |
| 20260503214555 | 70 | 309 | 1.0 | 6.0 | 0.00 | 0.00 | 0.00 | 28 | 1015.4 |
| 20260503213050 | 71 | 248 | 4.0 | 8.0 | 0.00 | 0.00 | 0.00 | 27 | 1015.7 |
| 20260503211550 | 70 | 134 | 0.0 | 7.0 | 0.00 | 0.00 | 0.00 | 29 | 1016.0 |
| 20260503210045 | 70 | 284 | 1.0 | 9.0 | 0.00 | 0.00 | 0.00 | 28 | 1016.1 |
| 20260503204550 | 70 | 281 | 2.0 | 4.0 | 0.00 | 0.00 | 0.00 | 26 | 1016.3 |
| 20260503203049 | 70 | 246 | 1.0 | 6.0 | 0.00 | 0.00 | 0.00 | 29 | 1016.4 |
| 20260503201550 | 69 | 242 | 3.0 | 8.0 | 0.00 | 0.00 | 0.00 | 27 | 1016.7 |
| 20260503200048 | 69 | 0 | 2.0 | 7.0 | 0.00 | 0.00 | 0.00 | 29 | 1016.8 |